Time;durP1;ratioP1;P1;durP2;ratioP2;P2;SDS_P1;SDS_P2;PMS_P1;PMS_P2;Temp;Humidity;BMP_temperature;BMP_pressure;BME280_temperature;BME280_humidity;BME280_pressure;Samples;Min_cycle;Max_cycle;Signal;HPM_P1;HPM_P2
2021/12/04 00:01:54;;;;;;;51.80;36.10;;;4.70;99.90;;;;;;5009916;28;20042;-36
2021/12/04 00:04:32;;;;;;;57.77;36.40;;;4.70;99.90;;;;;;5006767;28;20092;-37
2021/12/04 00:06:58;;;;;;;53.40;35.43;;;4.70;99.90;;;;;;5011028;28;20123;-35
2021/12/04 00:09:24;;;;;;;62.40;37.33;;;4.70;99.90;;;;;;5006524;28;20045;-37
2021/12/04 00:11:54;;;;;;;58.80;36.97;;;4.70;99.90;;;;;;5007407;28;20401;-36
2021/12/04 00:14:20;;;;;;;62.23;37.17;;;4.70;99.90;;;;;;4989575;28;20050;-36
2021/12/04 00:16:46;;;;;;;59.77;36.90;;;4.70;99.90;;;;;;4977165;28;20093;-38
2021/12/04 00:19:12;;;;;;;65.50;37.90;;;4.70;99.90;;;;;;4986991;28;20133;-35
2021/12/04 00:21:38;;;;;;;64.50;37.63;;;4.70;99.90;;;;;;4987658;28;20038;-37
2021/12/04 00:24:04;;;;;;;63.00;37.80;;;4.70;99.90;;;;;;4987574;28;20046;-36
2021/12/04 00:26:30;;;;;;;63.30;37.53;;;4.70;99.90;;;;;;4980167;28;20061;-36
2021/12/04 00:28:56;;;;;;;67.17;38.27;;;4.70;99.90;;;;;;4986544;28;20505;-37
2021/12/04 00:31:21;;;;;;;72.27;38.43;;;4.70;99.90;;;;;;4989287;28;20094;-36
2021/12/04 00:33:48;;;;;;;64.23;37.43;;;4.70;99.90;;;;;;4985135;28;20054;-35
2021/12/04 00:49:57;;;;;;;67.43;37.70;;;4.60;99.90;;;;;;4985895;28;20679;-35
2021/12/04 00:52:23;;;;;;;70.70;36.93;;;4.60;99.90;;;;;;4986283;28;20117;-36
2021/12/04 00:54:49;;;;;;;75.97;39.27;;;4.60;99.90;;;;;;4986878;28;20113;-36
2021/12/04 00:57:14;;;;;;;76.53;40.07;;;4.60;99.90;;;;;;4975947;28;20457;-36
2021/12/04 00:59:40;;;;;;;73.63;37.73;;;4.70;99.90;;;;;;4992643;28;20099;-36
2021/12/04 01:02:06;;;;;;;70.73;38.73;;;4.70;99.90;;;;;;5020985;28;20034;-36
2021/12/04 01:04:32;;;;;;;67.90;36.90;;;4.60;99.90;;;;;;4985799;28;20046;-36
2021/12/04 01:06:58;;;;;;;80.37;38.60;;;4.60;99.90;;;;;;4979543;28;20037;-35
2021/12/04 01:09:25;;;;;;;68.13;38.37;;;4.70;99.90;;;;;;4987752;28;20050;-37
2021/12/04 01:11:53;;;;;;;71.43;37.40;;;4.70;99.90;;;;;;5017891;28;20510;-34
2021/12/04 01:14:21;;;;;;;72.57;38.20;;;4.70;99.90;;;;;;4985319;28;20049;-35
2021/12/04 01:16:47;;;;;;;71.17;38.47;;;4.60;99.90;;;;;;4978084;28;20490;-36
2021/12/04 01:19:14;;;;;;;70.70;37.57;;;4.70;99.90;;;;;;4985655;28;20553;-35
2021/12/04 01:21:41;;;;;;;73.07;38.27;;;4.70;99.90;;;;;;4989374;28;20636;-36
2021/12/04 01:24:07;;;;;;;78.47;37.03;;;4.70;99.90;;;;;;4986673;28;20564;-35
2021/12/04 01:26:33;;;;;;;63.70;35.70;;;4.70;99.90;;;;;;4978799;28;20514;-36
2021/12/04 01:28:58;;;;;;;74.17;36.10;;;4.70;99.90;;;;;;4985621;28;20422;-36
2021/12/04 01:31:24;;;;;;;70.17;36.03;;;4.60;99.90;;;;;;4986291;28;20092;-34
2021/12/04 01:33:50;;;;;;;72.47;36.37;;;4.70;99.90;;;;;;4985531;28;20050;-37
2021/12/04 01:36:16;;;;;;;72.03;36.20;;;4.70;99.90;;;;;;4977487;28;20050;-38
2021/12/04 01:38:42;;;;;;;69.27;36.33;;;4.70;99.90;;;;;;4986626;28;20585;-36
2021/12/04 01:41:08;;;;;;;74.33;37.03;;;4.70;99.90;;;;;;4986264;28;20060;-37
2021/12/04 01:43:33;;;;;;;74.47;36.87;;;4.60;99.90;;;;;;4985151;28;20510;-36
2021/12/04 01:45:59;;;;;;;68.53;33.97;;;4.70;99.90;;;;;;4985734;28;20135;-36
2021/12/04 01:48:25;;;;;;;69.53;35.70;;;4.60;99.90;;;;;;4977833;28;20050;-36
2021/12/04 01:50:52;;;;;;;71.83;36.43;;;4.70;99.90;;;;;;4986624;28;20101;-35
2021/12/04 01:53:19;;;;;;;77.47;37.13;;;4.60;99.90;;;;;;4985309;28;20062;-36
2021/12/04 01:55:45;;;;;;;73.90;36.90;;;4.60;99.90;;;;;;4983876;28;20141;-37
2021/12/04 01:58:12;;;;;;;68.27;35.23;;;4.60;99.90;;;;;;4975040;28;20046;-36
2021/12/04 02:00:40;;;;;;;78.17;37.13;;;4.60;99.90;;;;;;5019467;28;20128;-39
2021/12/04 02:03:08;;;;;;;73.27;35.90;;;4.60;99.90;;;;;;4987204;28;20108;-37
2021/12/04 02:05:38;;;;;;;71.03;35.27;;;4.60;99.90;;;;;;4988479;28;20050;-33
2021/12/04 02:08:05;;;;;;;70.17;35.30;;;4.60;99.90;;;;;;4974461;28;20042;-36
2021/12/04 02:10:31;;;;;;;69.33;36.33;;;4.70;99.90;;;;;;4986334;28;20572;-37
2021/12/04 02:12:56;;;;;;;79.57;36.53;;;4.60;99.90;;;;;;4986274;28;20042;-37
2021/12/04 02:15:22;;;;;;;75.20;36.67;;;4.60;99.90;;;;;;4984425;28;20527;-35
2021/12/04 02:17:49;;;;;;;74.90;35.23;;;4.60;99.90;;;;;;4973218;28;20450;-36
2021/12/04 02:20:18;;;;;;;78.50;35.27;;;4.70;99.90;;;;;;4984452;28;20038;-37
2021/12/04 02:22:44;;;;;;;82.43;35.77;;;4.60;99.90;;;;;;4987973;28;20549;-33
2021/12/04 02:25:10;;;;;;;73.70;36.33;;;4.60;99.90;;;;;;4985912;28;20038;-35
2021/12/04 02:27:37;;;;;;;77.33;36.73;;;4.60;99.90;;;;;;4974218;28;20065;-36
2021/12/04 02:30:07;;;;;;;74.73;36.13;;;4.60;99.90;;;;;;4987831;28;20049;-36
2021/12/04 02:32:33;;;;;;;82.53;36.27;;;4.60;99.90;;;;;;4984423;28;20453;-37
2021/12/04 02:34:59;;;;;;;68.80;34.37;;;4.60;99.90;;;;;;4985265;28;20077;-36
2021/12/04 02:37:25;;;;;;;85.73;35.67;;;4.50;99.90;;;;;;4979759;28;20565;-36
2021/12/04 02:39:58;;;;;;;78.83;36.17;;;4.60;99.90;;;;;;4985609;28;20050;-36
2021/12/04 02:42:28;;;;;;;77.13;36.33;;;4.60;99.90;;;;;;4984431;28;20053;-34
2021/12/04 02:44:54;;;;;;;70.50;35.13;;;4.60;99.90;;;;;;4984821;28;20104;-36
2021/12/04 02:47:20;;;;;;;75.77;35.83;;;4.60;99.90;;;;;;4974232;28;20062;-37
2021/12/04 02:49:46;;;;;;;64.67;34.40;;;4.60;99.90;;;;;;4984894;28;20046;-36
2021/12/04 02:52:13;;;;;;;77.80;35.83;;;4.60;99.90;;;;;;4984699;28;20043;-36
2021/12/04 02:54:40;;;;;;;70.23;35.27;;;4.60;99.90;;;;;;4985030;28;20126;-37
2021/12/04 02:57:08;;;;;;;68.83;36.13;;;4.60;99.90;;;;;;4975605;28;20115;-36
2021/12/04 02:59:37;;;;;;;77.10;35.77;;;4.60;99.90;;;;;;4985344;28;20061;-36
2021/12/04 03:02:04;;;;;;;73.03;35.67;;;4.60;99.90;;;;;;4990857;28;20056;-37
2021/12/04 03:04:31;;;;;;;75.00;36.10;;;4.60;99.90;;;;;;5001887;28;20049;-36
2021/12/04 03:06:57;;;;;;;74.30;34.73;;;4.60;99.90;;;;;;4993344;28;20065;-36
2021/12/04 03:09:22;;;;;;;71.77;34.93;;;4.70;99.90;;;;;;5005596;28;20084;-37
2021/12/04 03:11:48;;;;;;;76.17;35.07;;;4.60;99.90;;;;;;5004582;28;20181;-37
2021/12/04 03:14:14;;;;;;;67.10;33.50;;;4.50;99.90;;;;;;5003419;28;20472;-37
2021/12/04 03:16:41;;;;;;;74.03;33.27;;;4.50;99.90;;;;;;4993560;28;20058;-36
2021/12/04 03:19:08;;;;;;;68.47;32.73;;;4.50;99.90;;;;;;5001632;28;20045;-37
2021/12/04 03:21:36;;;;;;;66.60;32.27;;;4.50;99.90;;;;;;5004466;28;20103;-36
2021/12/04 03:24:12;;;;;;;73.73;33.23;;;4.50;99.90;;;;;;5001853;28;20051;-37
2021/12/04 03:26:38;;;;;;;58.50;30.37;;;4.50;99.90;;;;;;4995325;28;20069;-35
2021/12/04 03:29:09;;;;;;;66.27;31.30;;;4.50;99.90;;;;;;5001828;28;20057;-36
2021/12/04 03:32:13;;;;;;;65.23;28.77;;;4.50;99.90;;;;;;5005911;28;20129;-36
2021/12/04 03:42:35;;;;;;;63.87;29.87;;;4.50;99.90;;;;;;5005644;28;20305;-36
2021/12/04 03:45:02;;;;;;;58.70;28.53;;;4.50;99.90;;;;;;5003997;28;20382;-36
2021/12/04 03:47:29;;;;;;;66.37;29.50;;;4.50;99.90;;;;;;4992932;28;20472;-35
2021/12/04 03:49:55;;;;;;;58.90;27.23;;;4.50;99.90;;;;;;5006718;28;20089;-36
2021/12/04 03:52:21;;;;;;;60.57;28.27;;;4.50;99.90;;;;;;5003431;28;20077;-36
2021/12/04 03:54:46;;;;;;;58.00;27.80;;;4.50;99.90;;;;;;5003892;28;20042;-36
2021/12/04 03:57:12;;;;;;;55.70;27.30;;;4.50;99.90;;;;;;5010033;28;20104;-36
2021/12/04 03:59:41;;;;;;;59.30;28.37;;;4.50;99.90;;;;;;5009546;28;20045;-37
2021/12/04 04:02:12;;;;;;;50.43;27.10;;;4.50;99.90;;;;;;5007315;28;20052;-36
2021/12/04 04:04:38;;;;;;;49.97;25.63;;;4.50;99.90;;;;;;5008162;28;20460;-35
2021/12/04 04:07:05;;;;;;;51.53;26.30;;;4.50;99.90;;;;;;5007514;28;20038;-36
2021/12/04 04:09:32;;;;;;;46.57;25.67;;;4.50;99.90;;;;;;5008090;28;20077;-35
2021/12/04 04:11:58;;;;;;;51.73;25.80;;;4.50;99.90;;;;;;5007855;28;20045;-37
2021/12/04 04:14:25;;;;;;;48.17;24.60;;;4.50;99.90;;;;;;5010121;28;20133;-34
2021/12/04 04:16:53;;;;;;;43.80;23.73;;;4.40;99.90;;;;;;4986387;28;20521;-36
2021/12/04 04:19:20;;;;;;;44.17;23.20;;;4.40;99.90;;;;;;5006037;28;20129;-36
2021/12/04 04:21:46;;;;;;;49.53;25.23;;;4.50;99.90;;;;;;5021875;28;20046;-35
2021/12/04 04:24:16;;;;;;;49.50;24.03;;;4.50;99.90;;;;;;5005939;28;20384;-36
2021/12/04 04:26:43;;;;;;;48.93;24.63;;;4.50;99.90;;;;;;4992971;28;20379;-38
2021/12/04 04:29:10;;;;;;;44.70;23.43;;;4.50;99.90;;;;;;5006903;28;20543;-37
2021/12/04 04:31:44;;;;;;;49.77;24.17;;;4.50;99.90;;;;;;5007365;28;20049;-37
2021/12/04 04:34:10;;;;;;;47.60;22.70;;;4.50;99.90;;;;;;5006295;28;20137;-37
2021/12/04 05:11:42;;;;;;;51.13;22.87;;;4.40;99.90;;;;;;5009727;28;20099;-35
2021/12/04 05:14:08;;;;;;;49.57;22.67;;;4.40;99.90;;;;;;5005188;28;20046;-33
2021/12/04 05:19:29;;;;;;;48.50;23.13;;;4.40;99.90;;;;;;4994652;28;20807;-36
2021/12/04 05:21:55;;;;;;;47.53;22.90;;;4.40;99.90;;;;;;5020011;28;20409;-35
2021/12/04 05:24:22;;;;;;;48.57;22.47;;;4.40;99.90;;;;;;5019398;28;20184;-36
2021/12/04 05:26:48;;;;;;;47.27;22.83;;;4.40;99.90;;;;;;4996495;28;20131;-35
2021/12/04 05:29:14;;;;;;;43.70;22.63;;;4.40;99.90;;;;;;5006543;28;20038;-35
2021/12/04 05:31:39;;;;;;;49.13;22.50;;;4.40;99.90;;;;;;5010080;28;20057;-37
2021/12/04 05:34:05;;;;;;;44.83;22.43;;;4.40;99.90;;;;;;5016857;28;20046;-37
2021/12/04 05:36:31;;;;;;;38.90;21.60;;;4.40;99.90;;;;;;4976152;28;20671;-34
2021/12/04 05:38:56;;;;;;;45.73;21.50;;;4.40;99.90;;;;;;5019866;28;20043;-37
2021/12/04 05:41:22;;;;;;;42.40;20.77;;;4.40;99.90;;;;;;5017360;28;20517;-36
2021/12/04 05:43:49;;;;;;;41.33;20.33;;;4.40;99.90;;;;;;4987552;28;20046;-35
2021/12/04 05:46:17;;;;;;;40.13;20.73;;;4.40;99.90;;;;;;4977667;28;20093;-34
2021/12/04 05:48:51;;;;;;;37.17;20.03;;;4.40;99.90;;;;;;4985750;28;20042;-35
2021/12/04 05:54:00;;;;;;;37.30;19.33;;;4.40;99.90;;;;;;4984713;28;20042;-34
2021/12/04 05:56:29;;;;;;;38.27;20.43;;;4.40;99.90;;;;;;4975739;28;20394;-35
2021/12/04 05:58:55;;;;;;;33.93;18.80;;;4.40;99.90;;;;;;5002730;28;20461;-36
2021/12/04 06:01:23;;;;;;;38.60;19.87;;;4.40;99.90;;;;;;5012724;28;20053;-36
2021/12/04 06:03:48;;;;;;;42.40;19.73;;;4.30;99.90;;;;;;4990763;28;20053;-37
2021/12/04 06:06:15;;;;;;;39.50;19.37;;;4.30;99.90;;;;;;5007415;28;20050;-36
2021/12/04 06:08:42;;;;;;;41.60;20.73;;;4.10;99.90;;;;;;4983965;28;20169;-36
2021/12/04 06:11:08;;;;;;;34.27;19.30;;;4.30;99.90;;;;;;4987972;28;20562;-36
2021/12/04 06:13:33;;;;;;;36.27;19.93;;;4.30;99.90;;;;;;4985156;28;20153;-36
2021/12/04 06:15:59;;;;;;;37.70;19.70;;;4.30;99.90;;;;;;4983970;28;20648;-36
2021/12/04 06:18:25;;;;;;;37.07;19.23;;;4.30;99.90;;;;;;4977142;28;20056;-36
2021/12/04 06:23:36;;;;;;;39.33;20.33;;;4.30;99.90;;;;;;4985677;28;20049;-36
2021/12/04 06:26:06;;;;;;;38.50;19.77;;;4.30;99.90;;;;;;4984268;28;20516;-35
2021/12/04 06:28:31;;;;;;;43.17;20.43;;;4.30;99.90;;;;;;5008753;28;20057;-36
2021/12/04 06:30:59;;;;;;;37.97;19.87;;;4.30;99.90;;;;;;4988662;28;20050;-36
2021/12/04 06:33:25;;;;;;;40.13;20.10;;;4.30;99.90;;;;;;4985217;28;20045;-35
2021/12/04 06:35:52;;;;;;;36.60;20.13;;;4.30;99.90;;;;;;4983181;28;20046;-37
2021/12/04 06:38:19;;;;;;;43.30;21.50;;;4.30;99.90;;;;;;4974243;28;20046;-36
2021/12/04 06:40:47;;;;;;;45.93;21.47;;;4.30;99.90;;;;;;5013460;28;20600;-36
2021/12/04 06:43:13;;;;;;;40.60;20.97;;;4.30;99.90;;;;;;4983043;28;20125;-35
2021/12/04 06:45:45;;;;;;;46.80;20.33;;;4.30;99.90;;;;;;4998772;28;20116;-36
2021/12/04 06:48:23;;;;;;;41.97;21.80;;;4.30;99.90;;;;;;4972963;28;20073;-36
2021/12/04 06:50:53;;;;;;;48.60;22.50;;;4.30;99.90;;;;;;5016426;28;20383;-35
2021/12/04 06:53:30;;;;;;;44.60;22.43;;;4.30;99.90;;;;;;4982290;28;20486;-37
2021/12/04 06:55:58;;;;;;;45.40;22.97;;;4.30;99.90;;;;;;4984609;28;20054;-36
2021/12/04 06:58:26;;;;;;;44.00;21.77;;;4.30;99.90;;;;;;4974183;28;20050;-36
2021/12/04 07:00:52;;;;;;;50.13;23.60;;;4.30;99.90;;;;;;4985249;28;20058;-37
2021/12/04 07:03:19;;;;;;;44.47;22.00;;;4.30;99.90;;;;;;4994029;28;20034;-36
2021/12/04 07:05:45;;;;;;;45.27;21.73;;;4.30;99.90;;;;;;5006284;28;20091;-36
2021/12/04 07:08:11;;;;;;;45.60;21.30;;;4.30;99.90;;;;;;4992986;28;20336;-36
2021/12/04 07:10:37;;;;;;;43.40;19.83;;;4.30;99.90;;;;;;5006917;28;20568;-37
2021/12/04 07:13:03;;;;;;;46.57;24.40;;;4.30;99.90;;;;;;4995036;28;20054;-36
2021/12/04 07:15:31;;;;;;;44.20;22.70;;;4.30;99.90;;;;;;4999480;28;20110;-36
2021/12/04 07:17:58;;;;;;;50.43;22.33;;;4.30;99.90;;;;;;4973605;28;20092;-36
2021/12/04 07:20:24;;;;;;;42.70;23.13;;;4.30;99.90;;;;;;4984178;28;20046;-36
2021/12/04 07:22:50;;;;;;;61.33;28.30;;;4.20;99.90;;;;;;4984531;28;20053;-37
2021/12/04 07:25:16;;;;;;;53.43;26.17;;;4.30;99.90;;;;;;4984027;28;20053;-36
2021/12/04 07:27:43;;;;;;;49.73;25.97;;;4.30;99.90;;;;;;5004582;28;20054;-36
2021/12/04 07:30:09;;;;;;;56.30;26.67;;;4.30;99.90;;;;;;4983683;28;20306;-36
2021/12/04 07:32:37;;;;;;;57.93;26.60;;;4.30;99.90;;;;;;4984582;28;20540;-34
2021/12/04 07:35:04;;;;;;;56.63;28.20;;;4.30;99.90;;;;;;4986621;28;20283;-36
2021/12/04 07:37:31;;;;;;;60.83;26.80;;;4.30;99.90;;;;;;4978415;28;20081;-36
2021/12/04 07:39:56;;;;;;;60.07;27.13;;;4.30;99.90;;;;;;4988020;28;20179;-36
2021/12/04 07:42:22;;;;;;;62.60;29.47;;;4.30;99.90;;;;;;4988831;28;20050;-34
2021/12/04 07:44:48;;;;;;;60.90;28.27;;;4.30;99.90;;;;;;5000967;28;20550;-37
2021/12/04 07:47:14;;;;;;;50.83;24.40;;;4.30;99.90;;;;;;4977651;28;20034;-37
2021/12/04 07:49:40;;;;;;;48.53;24.73;;;4.30;99.90;;;;;;5002035;28;20163;-35
2021/12/04 07:52:08;;;;;;;54.03;24.27;;;4.30;99.90;;;;;;4986659;28;20042;-36
2021/12/04 07:54:35;;;;;;;45.60;23.10;;;4.30;99.90;;;;;;4989773;28;20528;-36
2021/12/04 07:57:01;;;;;;;49.57;23.60;;;4.30;99.90;;;;;;5006377;28;20204;-36
2021/12/04 07:59:28;;;;;;;48.37;22.37;;;4.30;99.90;;;;;;4986703;28;20046;-37
2021/12/04 08:01:58;;;;;;;48.47;23.23;;;4.30;99.90;;;;;;5001090;28;20102;-37
2021/12/04 08:04:23;;;;;;;46.60;22.97;;;4.30;99.90;;;;;;4986309;28;20165;-36
2021/12/04 08:06:50;;;;;;;49.20;21.83;;;4.30;99.90;;;;;;4979187;28;20030;-37
2021/12/04 08:09:17;;;;;;;51.97;22.97;;;4.30;99.90;;;;;;5001672;28;20050;-37
2021/12/04 08:11:43;;;;;;;46.27;21.70;;;4.30;99.90;;;;;;4987198;28;20137;-37
2021/12/04 08:14:09;;;;;;;48.43;23.27;;;4.30;99.90;;;;;;5019124;28;20453;-36
2021/12/04 08:16:35;;;;;;;47.03;21.83;;;4.30;99.90;;;;;;4980118;28;20080;-37
2021/12/04 08:19:02;;;;;;;44.77;20.90;;;4.30;99.90;;;;;;4986309;28;20042;-37
2021/12/04 08:21:27;;;;;;;45.00;20.63;;;4.30;99.90;;;;;;4986205;28;20082;-36
2021/12/04 08:23:53;;;;;;;45.17;21.60;;;4.30;99.90;;;;;;5000239;28;20133;-37
2021/12/04 08:26:20;;;;;;;47.70;22.47;;;4.40;99.90;;;;;;5010010;28;20049;-36
2021/12/04 08:28:46;;;;;;;47.10;24.13;;;4.30;99.90;;;;;;5030901;28;20100;-37
2021/12/04 08:31:13;;;;;;;48.90;23.33;;;4.40;99.90;;;;;;5007206;28;20030;-36
2021/12/04 08:33:39;;;;;;;43.53;22.17;;;4.40;99.90;;;;;;4992529;28;20049;-34
2021/12/04 08:36:06;;;;;;;49.03;21.43;;;4.40;99.90;;;;;;4986339;28;20129;-36
2021/12/04 08:38:32;;;;;;;48.23;23.30;;;4.40;99.90;;;;;;5009413;28;20665;-36
2021/12/04 08:41:00;;;;;;;46.90;22.37;;;4.40;99.90;;;;;;4986745;28;20529;-37
2021/12/04 08:43:26;;;;;;;51.77;23.00;;;4.40;99.90;;;;;;4986021;28;20054;-36
2021/12/04 08:45:53;;;;;;;49.07;21.43;;;4.40;99.90;;;;;;4986222;28;20152;-36
2021/12/04 08:48:19;;;;;;;46.20;21.80;;;4.40;99.90;;;;;;4980285;28;20049;-37
2021/12/04 08:50:45;;;;;;;47.33;21.97;;;4.40;99.90;;;;;;4988073;28;20046;-36
2021/12/04 08:53:11;;;;;;;47.33;21.87;;;4.40;99.90;;;;;;4998200;28;20556;-37
2021/12/04 08:55:39;;;;;;;42.60;21.43;;;4.50;99.90;;;;;;5015121;28;20125;-36
2021/12/04 08:58:07;;;;;;;42.27;21.80;;;4.40;99.90;;;;;;4992897;28;20088;-37
2021/12/04 09:00:53;;;;;;;45.03;21.27;;;4.40;99.90;;;;;;5005700;28;20413;-36
2021/12/04 09:03:27;;;;;;;42.73;20.80;;;4.40;99.90;;;;;;4996012;28;20549;-36
2021/12/04 09:05:54;;;;;;;39.80;20.20;;;4.40;99.90;;;;;;4986133;28;20560;-37
2021/12/04 09:08:22;;;;;;;37.70;20.43;;;4.50;99.90;;;;;;4979487;28;20079;-36
2021/12/04 09:10:49;;;;;;;43.03;21.27;;;4.40;99.90;;;;;;5001161;28;20127;-36
2021/12/04 09:13:16;;;;;;;41.07;21.67;;;4.40;99.90;;;;;;4986539;28;20298;-36
2021/12/04 09:15:43;;;;;;;44.67;21.57;;;4.50;99.90;;;;;;4986486;28;20521;-37
2021/12/04 09:18:08;;;;;;;41.20;20.77;;;4.40;99.90;;;;;;4974572;28;20053;-36
2021/12/04 09:20:34;;;;;;;38.60;19.60;;;4.50;99.90;;;;;;4987486;28;20469;-36
2021/12/04 09:23:02;;;;;;;41.30;20.30;;;4.50;99.90;;;;;;5016402;28;20057;-35
2021/12/04 09:25:31;;;;;;;36.80;21.00;;;4.50;99.90;;;;;;4984214;28;20509;-37
2021/12/04 09:33:41;;;;;;;38.08;19.30;;;4.40;99.90;;;;;;4984607;28;20038;-37
2021/12/04 10:33:41;;;;;;;19.93;14.00;;;4.60;99.90;;;;;;5016408;28;20045;-35
2021/12/04 10:36:07;;;;;;;21.25;13.18;;;4.60;99.90;;;;;;5017995;28;20049;-37
2021/12/04 10:38:40;;;;;;;21.37;13.07;;;4.60;99.90;;;;;;5031108;28;20652;-37
2021/12/04 10:41:07;;;;;;;19.53;12.90;;;4.70;99.90;;;;;;5023676;28;20047;-35
2021/12/04 10:43:35;;;;;;;19.43;13.47;;;4.70;99.90;;;;;;5010326;28;20049;-37
2021/12/04 10:46:13;;;;;;;17.97;12.97;;;4.70;99.90;;;;;;5003876;28;20044;-36
2021/12/04 10:48:47;;;;;;;19.90;13.17;;;4.70;99.90;;;;;;5012595;28;20528;-35
2021/12/04 10:53:48;;;;;;;20.07;13.87;;;4.70;99.90;;;;;;5020132;28;20042;-34
2021/12/04 10:59:26;;;;;;;21.70;14.17;;;4.70;99.90;;;;;;5006963;28;20108;-36
2021/12/04 11:21:39;;;;;;;25.00;15.20;;;4.80;99.90;;;;;;5000566;28;20046;-33
2021/12/04 11:27:05;;;;;;;24.10;15.60;;;4.90;99.90;;;;;;5006513;28;20062;-36
2021/12/04 11:38:02;;;;;;;22.97;14.67;;;4.80;99.90;;;;;;5016494;28;20084;-36
2021/12/04 11:43:03;;;;;;;27.13;19.20;;;4.90;99.90;;;;;;5017188;28;20041;-36
2021/12/04 11:45:59;;;;;;;26.03;18.40;;;5.00;99.90;;;;;;5005633;28;20038;-35
2021/12/04 11:48:35;;;;;;;31.50;20.67;;;4.90;99.90;;;;;;4990495;28;20056;-36
2021/12/04 11:51:03;;;;;;;28.53;18.70;;;4.90;99.90;;;;;;5006376;28;20448;-36
2021/12/04 11:53:32;;;;;;;29.20;17.73;;;4.90;99.90;;;;;;5004103;28;20045;-35
2021/12/04 11:55:58;;;;;;;26.53;17.23;;;4.90;99.90;;;;;;5005086;28;20107;-36
2021/12/04 11:58:27;;;;;;;24.43;14.50;;;4.90;99.90;;;;;;4984962;28;20103;-36
2021/12/04 12:00:58;;;;;;;22.00;14.53;;;5.10;99.90;;;;;;5002132;28;20117;-36
2021/12/04 12:03:29;;;;;;;22.30;14.88;;;5.00;99.90;;;;;;4995924;28;20050;-37
2021/12/04 12:06:08;;;;;;;22.95;14.50;;;4.90;99.90;;;;;;5005666;28;20060;-36
2021/12/04 12:08:37;;;;;;;22.87;14.10;;;5.00;99.90;;;;;;4976237;28;20493;-37
2021/12/04 12:11:18;;;;;;;21.90;14.40;;;5.00;99.90;;;;;;4997046;28;20718;-37
2021/12/04 12:13:48;;;;;;;14.98;9.65;;;5.00;99.90;;;;;;5015921;28;20056;-35
2021/12/04 12:16:30;;;;;;;23.70;13.90;;;5.10;99.90;;;;;;5014003;28;20108;-36
2021/12/04 12:18:58;;;;;;;22.67;13.45;;;5.00;99.90;;;;;;5007682;28;20065;-37
2021/12/04 12:21:32;;;;;;;21.67;13.57;;;5.00;99.90;;;;;;5005877;28;20064;-36
2021/12/04 12:38:30;;;;;;;25.40;14.77;;;5.10;99.90;;;;;;5010675;28;20471;-37
2021/12/04 12:41:16;;;;;;;26.57;16.00;;;5.10;99.90;;;;;;5023334;28;20053;-36
2021/12/04 12:43:57;;;;;;;27.73;15.97;;;5.10;99.90;;;;;;5009541;28;20486;-36
2021/12/04 12:46:42;;;;;;;30.23;16.50;;;5.10;99.90;;;;;;4992896;28;20521;-36
2021/12/04 12:49:21;;;;;;;27.47;15.97;;;5.10;99.90;;;;;;5002598;28;20299;-37
2021/12/04 12:51:53;;;;;;;26.20;16.30;;;5.10;99.90;;;;;;5002584;28;20076;-37
2021/12/04 12:54:32;;;;;;;28.53;16.20;;;5.10;99.90;;;;;;5001963;28;20402;-36
2021/12/04 12:57:02;;;;;;;26.53;16.57;;;5.10;99.90;;;;;;4987183;28;20577;-36
2021/12/04 13:14:09;;;;;;;31.17;18.43;;;5.20;99.90;;;;;;5015466;28;20483;-36
2021/12/04 13:16:36;;;;;;;40.23;19.53;;;5.10;99.90;;;;;;4998541;28;20053;-36
2021/12/04 13:19:08;;;;;;;36.70;20.33;;;5.10;99.90;;;;;;5002308;28;20312;-35
2021/12/04 13:21:36;;;;;;;36.47;19.70;;;5.10;99.90;;;;;;5000860;28;20054;-36
2021/12/04 13:24:03;;;;;;;40.40;21.30;;;5.10;99.90;;;;;;4993043;28;20054;-36
2021/12/04 13:26:32;;;;;;;40.60;22.30;;;5.10;99.90;;;;;;4990226;28;20049;-36
2021/12/04 13:29:00;;;;;;;45.97;23.63;;;5.10;99.90;;;;;;5001960;28;20655;-36
2021/12/04 13:31:27;;;;;;;46.93;24.03;;;5.10;99.90;;;;;;5003713;28;20401;-36
2021/12/04 13:33:53;;;;;;;41.87;24.87;;;5.10;99.90;;;;;;5016822;28;20045;-36
2021/12/04 13:36:22;;;;;;;39.40;20.13;;;5.10;99.90;;;;;;5007475;28;20085;-36
2021/12/04 13:38:55;;;;;;;36.10;20.93;;;5.10;99.90;;;;;;5020340;28;20045;-36
2021/12/04 13:41:21;;;;;;;37.47;21.30;;;5.10;99.90;;;;;;5020742;28;20117;-37
2021/12/04 13:43:55;;;;;;;41.60;21.87;;;5.10;99.90;;;;;;5002446;28;20141;-35
2021/12/04 13:46:21;;;;;;;39.10;21.33;;;5.10;99.90;;;;;;4992045;28;20053;-36
2021/12/04 13:48:47;;;;;;;38.93;22.00;;;5.10;99.90;;;;;;5030704;28;20045;-36
2021/12/04 13:51:13;;;;;;;40.47;22.20;;;5.10;99.90;;;;;;5021111;28;20432;-38
2021/12/04 13:53:41;;;;;;;39.03;21.07;;;5.10;99.90;;;;;;5006125;28;20049;-35
2021/12/04 13:56:16;;;;;;;41.87;22.03;;;5.10;99.90;;;;;;4998223;28;20529;-37
2021/12/04 13:58:48;;;;;;;39.97;22.60;;;5.10;99.90;;;;;;5032139;28;20038;-35
2021/12/04 14:01:14;;;;;;;44.67;22.63;;;5.10;99.90;;;;;;5017250;28;20195;-37
2021/12/04 14:03:41;;;;;;;40.83;21.80;;;5.10;99.90;;;;;;5015619;28;20045;-34
2021/12/04 14:06:17;;;;;;;45.37;22.60;;;5.10;99.90;;;;;;5017717;28;20052;-37
2021/12/04 14:08:54;;;;;;;40.63;22.17;;;5.10;99.90;;;;;;5008423;28;20076;-36
2021/12/04 14:11:39;;;;;;;40.20;21.27;;;5.10;99.90;;;;;;5003738;28;20045;-37
2021/12/04 14:14:13;;;;;;;43.50;22.17;;;5.10;99.90;;;;;;5002236;28;20083;-36
2021/12/04 14:16:40;;;;;;;44.33;22.57;;;5.10;99.90;;;;;;4991312;28;20439;-35
2021/12/04 14:19:28;;;;;;;40.63;20.97;;;5.10;99.90;;;;;;5000488;28;20469;-37
2021/12/04 14:22:10;;;;;;;41.30;21.23;;;5.20;99.90;;;;;;5003164;28;20390;-35
2021/12/04 14:24:43;;;;;;;45.43;22.83;;;5.10;99.90;;;;;;5013348;28;20050;-37
2021/12/04 14:27:23;;;;;;;45.47;22.57;;;5.10;99.90;;;;;;4992249;28;20050;-37
2021/12/04 14:29:52;;;;;;;44.90;21.27;;;5.10;99.90;;;;;;5001421;28;20044;-37
2021/12/04 14:32:23;;;;;;;43.60;22.83;;;5.10;99.90;;;;;;4999366;28;20566;-36
2021/12/04 14:34:58;;;;;;;46.20;23.17;;;5.10;99.90;;;;;;5018042;28;20390;-36
2021/12/04 14:37:25;;;;;;;49.73;23.60;;;5.10;99.90;;;;;;4986193;28;20046;-36
2021/12/04 14:39:52;;;;;;;45.90;22.20;;;5.10;99.90;;;;;;4998311;28;20038;-36
2021/12/04 14:42:25;;;;;;;43.90;24.30;;;5.10;99.90;;;;;;4987597;28;20053;-37
2021/12/04 14:45:13;;;;;;;48.63;23.70;;;5.20;99.90;;;;;;4996298;28;20046;-36
2021/12/04 14:47:49;;;;;;;47.87;22.77;;;5.10;99.90;;;;;;5013611;28;20132;-36
2021/12/04 14:50:17;;;;;;;51.00;25.03;;;5.10;99.90;;;;;;5001033;28;20135;-37
2021/12/04 14:52:47;;;;;;;44.27;23.03;;;5.10;99.90;;;;;;5000113;28;20053;-37
2021/12/04 14:55:20;;;;;;;50.30;24.17;;;5.10;99.90;;;;;;4998524;28;20081;-37
2021/12/04 14:57:46;;;;;;;56.80;24.07;;;5.10;99.90;;;;;;4995307;28;20041;-37
2021/12/04 15:00:25;;;;;;;52.03;24.20;;;5.10;99.90;;;;;;5020977;28;20656;-36
2021/12/04 15:02:59;;;;;;;51.37;25.23;;;5.10;99.90;;;;;;5012035;28;20077;-36
2021/12/04 15:05:33;;;;;;;54.70;25.80;;;5.10;99.90;;;;;;5001380;28;20042;-35
2021/12/04 15:08:06;;;;;;;55.83;26.57;;;5.00;99.90;;;;;;4995545;28;20041;-35
2021/12/04 15:10:32;;;;;;;52.50;26.50;;;5.10;99.90;;;;;;5021009;28;20484;-36
2021/12/04 15:12:58;;;;;;;56.73;26.67;;;5.10;99.90;;;;;;5017262;28;20554;-36
2021/12/04 15:15:29;;;;;;;62.47;28.80;;;5.10;99.90;;;;;;5017014;28;20121;-36
2021/12/04 15:18:00;;;;;;;61.03;27.77;;;5.00;99.90;;;;;;4999732;28;20540;-37
2021/12/04 15:20:33;;;;;;;58.08;28.67;;;5.10;99.90;;;;;;5001730;28;20319;-36
2021/12/04 15:23:03;;;;;;;62.23;29.93;;;5.00;99.90;;;;;;4998976;28;20506;-37
2021/12/04 15:25:32;;;;;;;63.10;30.97;;;5.00;99.90;;;;;;4999397;28;20042;-36
2021/12/04 15:27:59;;;;;;;58.83;29.57;;;5.00;99.90;;;;;;4997414;28;20813;-35
2021/12/04 15:30:25;;;;;;;66.63;31.57;;;5.00;99.90;;;;;;5021151;28;20507;-36
2021/12/04 15:32:52;;;;;;;66.20;30.97;;;5.00;99.90;;;;;;5020802;28;20038;-36
2021/12/04 15:35:33;;;;;;;64.70;30.27;;;5.00;99.90;;;;;;5018589;28;20428;-36
2021/12/04 15:38:07;;;;;;;65.93;31.42;;;5.00;99.90;;;;;;5009092;28;20053;-36
2021/12/04 15:41:01;;;;;;;63.97;31.67;;;5.00;99.90;;;;;;5020005;28;20040;-36
2021/12/04 15:43:53;;;;;;;68.00;33.07;;;5.00;99.90;;;;;;5006783;28;20053;-36
2021/12/04 15:52:48;;;;;;;71.80;32.80;;;5.00;99.90;;;;;;5019496;28;20049;-37
2021/12/04 15:54:58;;;;;;;64.90;31.90;;;5.10;99.90;;;;;;5000025;28;20544;-35
2021/12/04 15:57:24;;;;;;;66.77;31.90;;;5.00;99.90;;;;;;4989990;28;20076;-37
2021/12/04 15:59:52;;;;;;;71.40;33.17;;;5.00;99.90;;;;;;5000687;28;20062;-37
2021/12/04 16:02:22;;;;;;;76.33;34.10;;;5.00;99.90;;;;;;5000640;28;20141;-36
2021/12/04 16:04:50;;;;;;;67.20;31.10;;;5.00;99.90;;;;;;4999122;28;20081;-37
2021/12/04 16:07:25;;;;;;;70.43;32.83;;;5.00;99.90;;;;;;4991171;28;20038;-36